Time;durP1;ratioP1;P1;durP2;ratioP2;P2;SDS_P1;SDS_P2;PMS_P1;PMS_P2;Temp;Humidity;BMP_temperature;BMP_pressure;BME280_temperature;BME280_humidity;BME280_pressure;Samples;Min_cycle;Max_cycle;Signal;HPM_P1;HPM_P2
2022/07/01 00:00:51;;;;;;;0.00;0.00;;;16.20;99.90;;;;;;5029301;28;20108;-74
2022/07/01 00:03:19;;;;;;;0.10;0.10;;;16.10;99.90;;;;;;5030442;28;20037;-75
2022/07/01 00:05:45;;;;;;;0.00;0.00;;;16.00;99.90;;;;;;5032790;28;20037;-74
2022/07/01 00:08:11;;;;;;;2.60;1.08;;;16.00;99.90;;;;;;5034473;28;20032;-76
2022/07/01 00:10:37;;;;;;;0.00;0.00;;;15.90;99.90;;;;;;5034492;28;20061;-75
2022/07/01 00:13:04;;;;;;;0.00;0.00;;;15.70;99.90;;;;;;5032807;28;20021;-75
2022/07/01 00:15:30;;;;;;;0.22;0.10;;;15.60;99.90;;;;;;5034646;28;20061;-75
2022/07/01 00:17:55;;;;;;;0.00;0.00;;;15.50;99.90;;;;;;5034476;28;20072;-75
2022/07/01 00:20:21;;;;;;;0.00;0.00;;;15.50;99.90;;;;;;5034328;28;20079;-74
2022/07/01 00:22:47;;;;;;;0.00;0.00;;;15.50;99.90;;;;;;5034262;28;20025;-74
2022/07/01 00:25:13;;;;;;;0.13;0.10;;;15.50;99.90;;;;;;5034321;28;20030;-74
2022/07/01 00:27:40;;;;;;;0.00;0.00;;;15.40;99.90;;;;;;5035901;28;20053;-75
2022/07/01 00:30:09;;;;;;;4.25;0.30;;;15.40;99.90;;;;;;5033218;28;20029;-76
2022/07/01 00:32:35;;;;;;;0.28;0.05;;;15.40;99.90;;;;;;5032578;28;20044;-74
2022/07/01 00:35:02;;;;;;;0.00;0.00;;;15.40;99.90;;;;;;5033163;28;20029;-75
2022/07/01 00:37:27;;;;;;;0.00;0.00;;;15.40;99.90;;;;;;5032789;28;20029;-75
2022/07/01 00:39:53;;;;;;;0.00;0.00;;;15.40;99.90;;;;;;5032726;28;20022;-75
2022/07/01 00:42:19;;;;;;;0.00;0.00;;;15.50;99.90;;;;;;5033429;28;20029;-75
2022/07/01 00:44:45;;;;;;;0.52;0.40;;;15.50;99.90;;;;;;5033898;28;20373;-75
2022/07/01 00:47:13;;;;;;;0.08;0.03;;;15.60;99.90;;;;;;5032490;28;20060;-75
2022/07/01 00:49:39;;;;;;;0.00;0.00;;;15.60;99.90;;;;;;5032521;28;20120;-75
2022/07/01 00:52:08;;;;;;;0.00;0.00;;;15.60;99.90;;;;;;5031567;28;20069;-74
2022/07/01 00:54:37;;;;;;;0.00;0.00;;;15.60;99.90;;;;;;5031128;28;20736;-75
2022/07/01 00:57:11;;;;;;;0.00;0.00;;;15.80;99.90;;;;;;5031612;28;20547;-75
2022/07/01 00:59:38;;;;;;;0.00;0.00;;;16.00;99.90;;;;;;5030899;28;20460;-75
2022/07/01 01:02:06;;;;;;;0.00;0.00;;;15.80;99.90;;;;;;5014747;28;20033;-74
2022/07/01 01:04:32;;;;;;;0.00;0.00;;;15.90;99.90;;;;;;5029953;28;20071;-74
2022/07/01 01:07:00;;;;;;;0.45;0.45;;;15.90;99.90;;;;;;5028588;28;20029;-74
2022/07/01 01:09:27;;;;;;;0.00;0.00;;;15.80;99.90;;;;;;5007694;28;20017;-74
2022/07/01 01:11:53;;;;;;;0.30;0.30;;;15.80;99.90;;;;;;5036704;28;20029;-75
2022/07/01 01:14:19;;;;;;;0.00;0.00;;;15.90;99.90;;;;;;5014027;28;20443;-74
2022/07/01 01:16:44;;;;;;;0.00;0.00;;;15.90;99.90;;;;;;5030099;28;20048;-74
2022/07/01 01:19:10;;;;;;;0.00;0.00;;;15.80;99.90;;;;;;5032067;28;20700;-74
2022/07/01 01:21:36;;;;;;;0.00;0.00;;;15.90;99.90;;;;;;5032015;28;20029;-75
2022/07/01 01:24:02;;;;;;;0.10;0.10;;;15.70;99.90;;;;;;5031848;28;20072;-75
2022/07/01 01:26:29;;;;;;;0.00;0.00;;;15.70;99.90;;;;;;5030698;28;20044;-75
2022/07/01 01:28:55;;;;;;;0.00;0.00;;;15.80;99.90;;;;;;5031981;28;20029;-74
2022/07/01 01:31:29;;;;;;;0.10;0.10;;;15.90;99.90;;;;;;5032023;28;20155;-75
2022/07/01 01:33:56;;;;;;;0.00;0.00;;;15.90;99.90;;;;;;5030300;28;20045;-74
2022/07/01 01:36:21;;;;;;;0.00;0.00;;;15.70;99.90;;;;;;5031959;28;20041;-74
2022/07/01 01:38:47;;;;;;;0.05;0.00;;;15.80;99.90;;;;;;5031583;28;20095;-74
2022/07/01 01:41:13;;;;;;;0.00;0.00;;;15.80;99.90;;;;;;5031740;28;20113;-74
2022/07/01 01:43:42;;;;;;;0.00;0.00;;;15.80;99.90;;;;;;5031021;28;20035;-75
2022/07/01 01:46:07;;;;;;;2.17;0.47;;;15.70;99.90;;;;;;5031764;28;20543;-75
2022/07/01 01:48:33;;;;;;;0.15;0.10;;;15.80;99.90;;;;;;5031696;28;20042;-75
2022/07/01 01:53:39;;;;;;;0.00;0.00;;;15.80;99.90;;;;;;5068028;28;20369;-75
2022/07/01 01:56:07;;;;;;;0.00;0.00;;;15.80;99.90;;;;;;5063857;28;20032;-75
2022/07/01 01:58:33;;;;;;;0.22;0.22;;;15.90;99.90;;;;;;5048517;28;20035;-75
2022/07/01 02:00:58;;;;;;;0.00;0.00;;;15.80;99.90;;;;;;5046634;28;20025;-74
2022/07/01 02:03:24;;;;;;;0.20;0.20;;;15.80;99.90;;;;;;5048204;28;20064;-75
2022/07/01 02:05:50;;;;;;;0.00;0.00;;;15.70;99.90;;;;;;5048256;28;20029;-74
2022/07/01 02:08:16;;;;;;;0.00;0.00;;;15.80;99.90;;;;;;5046931;28;20060;-74
2022/07/01 02:10:41;;;;;;;0.00;0.00;;;15.60;99.90;;;;;;5066506;28;20131;-75
2022/07/01 02:13:07;;;;;;;0.85;0.38;;;15.70;99.90;;;;;;5067629;28;20105;-74
2022/07/01 02:15:33;;;;;;;0.00;0.00;;;15.70;99.90;;;;;;5056605;28;20033;-75
2022/07/01 02:17:58;;;;;;;0.00;0.00;;;15.70;99.90;;;;;;5046305;28;20436;-75
2022/07/01 02:20:24;;;;;;;0.25;0.25;;;15.70;99.90;;;;;;5047957;28;20032;-74
2022/07/01 02:22:51;;;;;;;0.00;0.00;;;15.70;99.90;;;;;;5047583;28;20048;-74
2022/07/01 02:25:17;;;;;;;0.00;0.00;;;15.80;99.90;;;;;;5047855;28;20392;-75
2022/07/01 02:27:43;;;;;;;0.00;0.00;;;15.60;99.90;;;;;;5047537;28;20163;-74
2022/07/01 02:30:09;;;;;;;0.00;0.00;;;15.70;99.90;;;;;;5047759;28;20528;-75
2022/07/01 02:32:35;;;;;;;0.00;0.00;;;15.70;99.90;;;;;;5047420;28;20033;-75
2022/07/01 02:35:01;;;;;;;0.00;0.00;;;15.70;99.90;;;;;;5047698;28;20500;-75
2022/07/01 02:37:27;;;;;;;0.00;0.00;;;15.80;99.90;;;;;;5047572;28;20036;-76
2022/07/01 02:39:53;;;;;;;0.35;0.28;;;15.80;99.90;;;;;;5066340;28;20024;-75
2022/07/01 02:42:31;;;;;;;2.20;1.23;;;15.70;99.90;;;;;;5065791;28;20130;-76
2022/07/01 02:44:57;;;;;;;0.00;0.00;;;15.60;99.90;;;;;;5066341;28;20048;-75
2022/07/01 02:47:23;;;;;;;0.00;0.00;;;15.60;99.90;;;;;;5067381;28;20064;-75
2022/07/01 02:49:51;;;;;;;0.00;0.00;;;15.60;99.90;;;;;;5066145;28;20029;-75
2022/07/01 02:52:17;;;;;;;0.00;0.00;;;15.50;99.90;;;;;;5067111;28;20059;-74
2022/07/01 02:54:43;;;;;;;0.00;0.00;;;15.50;99.90;;;;;;5068208;28;20040;-75
2022/07/01 02:57:09;;;;;;;0.05;0.05;;;15.60;99.90;;;;;;5069591;28;20028;-75
2022/07/01 02:59:35;;;;;;;0.00;0.00;;;15.50;99.90;;;;;;5068954;28;20115;-75
2022/07/01 03:02:03;;;;;;;0.00;0.00;;;15.40;99.90;;;;;;5067545;28;20033;-75
2022/07/01 03:04:29;;;;;;;0.00;0.00;;;15.40;99.90;;;;;;5055399;28;20043;-76
2022/07/01 03:06:55;;;;;;;0.00;0.00;;;15.50;99.90;;;;;;5053993;28;20025;-75
2022/07/01 03:09:20;;;;;;;0.00;0.00;;;15.50;99.90;;;;;;5053689;28;20033;-75
2022/07/01 03:11:46;;;;;;;2.60;0.85;;;15.40;99.90;;;;;;5052091;28;20035;-76
2022/07/01 03:14:12;;;;;;;0.15;0.10;;;15.50;99.90;;;;;;5052875;28;20099;-75
2022/07/01 03:16:38;;;;;;;0.10;0.10;;;15.50;99.90;;;;;;5037717;28;20029;-75
2022/07/01 03:19:05;;;;;;;0.00;0.00;;;15.50;99.90;;;;;;5032708;28;20026;-76
2022/07/01 03:21:31;;;;;;;0.00;0.00;;;15.50;99.90;;;;;;5033622;28;20095;-75
2022/07/01 03:23:56;;;;;;;0.00;0.00;;;15.40;99.90;;;;;;5033278;28;20112;-75
2022/07/01 03:26:22;;;;;;;0.00;0.00;;;15.40;99.90;;;;;;5033548;28;20090;-75
2022/07/01 03:28:48;;;;;;;0.60;0.28;;;15.40;99.90;;;;;;5032032;28;20041;-76
2022/07/01 03:31:14;;;;;;;0.00;0.00;;;15.30;99.90;;;;;;5032365;28;20025;-74
2022/07/01 03:33:42;;;;;;;0.00;0.00;;;15.30;99.90;;;;;;5032906;28;20053;-75
2022/07/01 03:36:09;;;;;;;0.00;0.00;;;15.30;99.90;;;;;;5033060;28;20080;-75
2022/07/01 03:38:34;;;;;;;0.00;0.00;;;15.30;99.90;;;;;;5033741;28;20407;-74
2022/07/01 03:41:00;;;;;;;0.10;0.10;;;15.40;99.90;;;;;;5052799;28;20036;-74
2022/07/01 03:43:26;;;;;;;0.73;0.73;;;15.50;99.90;;;;;;5051209;28;20029;-75
2022/07/01 03:45:52;;;;;;;0.00;0.00;;;15.40;99.90;;;;;;5051730;28;20036;-75
2022/07/01 03:48:17;;;;;;;0.00;0.00;;;15.40;99.90;;;;;;5053236;28;20035;-75
2022/07/01 03:50:43;;;;;;;0.10;0.10;;;15.40;99.90;;;;;;5052660;28;20028;-74
2022/07/01 03:55:53;;;;;;;0.00;0.00;;;15.60;99.90;;;;;;4975370;28;20105;-78
2022/07/01 03:58:19;;;;;;;1.13;0.90;;;15.60;99.90;;;;;;4972622;28;20054;-78
2022/07/01 04:00:44;;;;;;;0.00;0.00;;;15.60;99.90;;;;;;4989063;28;20033;-76
2022/07/01 04:03:10;;;;;;;0.03;0.03;;;15.50;99.90;;;;;;4973427;28;20042;-78
2022/07/01 04:05:38;;;;;;;0.00;0.00;;;15.60;99.90;;;;;;4972957;28;20035;-81
2022/07/01 04:08:05;;;;;;;0.00;0.00;;;15.60;99.90;;;;;;4972547;28;20027;-81
2022/07/01 04:10:33;;;;;;;0.00;0.00;;;15.60;99.90;;;;;;5005279;28;20022;-80
2022/07/01 04:13:01;;;;;;;0.00;0.00;;;15.70;99.90;;;;;;5011504;28;20065;-83
2022/07/01 04:15:27;;;;;;;0.00;0.00;;;15.50;99.90;;;;;;4973889;28;20038;-81
2022/07/01 04:17:53;;;;;;;0.20;0.15;;;15.50;99.90;;;;;;4998621;28;20027;-81
2022/07/01 04:20:19;;;;;;;0.00;0.00;;;15.40;99.90;;;;;;5002697;28;20109;-85
2022/07/01 04:22:44;;;;;;;0.00;0.00;;;15.30;99.90;;;;;;4998462;28;20129;-80
2022/07/01 04:25:10;;;;;;;0.00;0.00;;;15.30;99.90;;;;;;4986083;28;20477;-79
2022/07/01 04:27:36;;;;;;;0.05;0.05;;;15.30;99.90;;;;;;4982517;28;20050;-80
2022/07/01 04:30:02;;;;;;;0.00;0.00;;;15.40;99.90;;;;;;4984820;28;20038;-78
2022/07/01 04:32:29;;;;;;;0.00;0.00;;;15.40;99.90;;;;;;4984821;28;20505;-83
2022/07/01 04:34:56;;;;;;;0.30;0.20;;;15.50;99.90;;;;;;4991253;28;20117;-79
2022/07/01 04:37:22;;;;;;;0.00;0.00;;;15.50;99.90;;;;;;4992128;28;20035;-81
2022/07/01 04:39:48;;;;;;;0.10;0.10;;;15.50;99.90;;;;;;4998394;28;20375;-83
2022/07/01 04:42:15;;;;;;;0.05;0.05;;;15.40;99.90;;;;;;4988023;28;20088;-87
2022/07/01 04:44:41;;;;;;;0.00;0.00;;;15.50;99.90;;;;;;4985080;28;20149;-85
2022/07/01 04:47:06;;;;;;;0.00;0.00;;;15.60;99.90;;;;;;4983531;28;20117;-81
2022/07/01 04:49:32;;;;;;;0.00;0.00;;;15.60;99.90;;;;;;4990833;28;20038;-79
2022/07/01 04:51:59;;;;;;;0.00;0.00;;;15.70;99.90;;;;;;4984195;28;20085;-81
2022/07/01 04:54:25;;;;;;;0.00;0.00;;;15.60;99.90;;;;;;4991845;28;20054;-81
2022/07/01 04:56:52;;;;;;;0.00;0.00;;;15.60;99.90;;;;;;4992854;28;20057;-86
2022/07/01 04:59:19;;;;;;;0.00;0.00;;;15.70;99.90;;;;;;4993591;28;20026;-80
2022/07/01 05:01:48;;;;;;;0.17;0.10;;;15.60;99.90;;;;;;4988402;28;20034;-82
2022/07/01 05:04:15;;;;;;;0.00;0.00;;;15.60;99.90;;;;;;4990460;28;20026;-81
2022/07/01 05:06:41;;;;;;;0.00;0.00;;;15.70;99.90;;;;;;4990979;28;20037;-82
2022/07/01 05:09:07;;;;;;;0.00;0.00;;;15.70;99.90;;;;;;4995884;28;20041;-76
2022/07/01 05:11:33;;;;;;;0.00;0.00;;;15.70;99.90;;;;;;5011828;28;20026;-83
2022/07/01 05:13:59;;;;;;;0.00;0.00;;;15.70;99.90;;;;;;5011173;28;20037;-82
2022/07/01 05:16:25;;;;;;;0.00;0.00;;;15.70;99.90;;;;;;4993302;28;20023;-82
2022/07/01 05:24:19;;;;;;;0.10;0.10;;;15.80;99.90;;;;;;4991636;28;20034;-84
2022/07/01 05:26:45;;;;;;;0.00;0.00;;;15.80;99.90;;;;;;4991937;28;20032;-84
2022/07/01 05:29:11;;;;;;;0.00;0.00;;;16.00;99.90;;;;;;4992048;28;20117;-83
2022/07/01 05:31:37;;;;;;;0.00;0.00;;;16.10;99.90;;;;;;4992044;28;20030;-83
2022/07/01 05:34:03;;;;;;;0.10;0.10;;;16.10;99.90;;;;;;4991383;28;20026;-83
2022/07/01 05:36:29;;;;;;;0.00;0.00;;;16.20;99.90;;;;;;4992661;28;20029;-83
2022/07/01 05:38:54;;;;;;;0.00;0.00;;;16.00;99.90;;;;;;4996155;28;20072;-80
2022/07/01 05:41:20;;;;;;;0.55;0.52;;;16.00;99.90;;;;;;5011096;28;20100;-78
2022/07/01 05:43:46;;;;;;;0.00;0.00;;;16.00;99.90;;;;;;5010980;28;20092;-78
2022/07/01 05:46:11;;;;;;;0.98;0.32;;;15.90;99.90;;;;;;5003391;28;20108;-78
2022/07/01 05:48:37;;;;;;;0.00;0.00;;;16.00;99.90;;;;;;4988706;28;20031;-78
2022/07/01 05:51:03;;;;;;;0.00;0.00;;;16.00;99.90;;;;;;5007654;28;20433;-78
2022/07/01 05:53:29;;;;;;;0.10;0.10;;;16.20;99.90;;;;;;5008893;28;20453;-79
2022/07/01 05:55:55;;;;;;;0.08;0.08;;;16.10;99.90;;;;;;4993351;28;20077;-79
2022/07/01 05:58:21;;;;;;;0.00;0.00;;;16.00;99.90;;;;;;4989698;28;20030;-73
2022/07/01 06:00:46;;;;;;;0.00;0.00;;;16.20;99.90;;;;;;4991161;28;20041;-73
2022/07/01 06:03:14;;;;;;;0.17;0.10;;;16.10;99.90;;;;;;4990400;28;20110;-73
2022/07/01 06:05:41;;;;;;;0.08;0.08;;;16.10;99.90;;;;;;4989119;28;20084;-74
2022/07/01 06:08:08;;;;;;;0.05;0.05;;;16.10;99.90;;;;;;4990443;28;20058;-74
2022/07/01 06:10:34;;;;;;;0.17;0.13;;;16.10;99.90;;;;;;5008086;28;20022;-72
2022/07/01 06:13:00;;;;;;;0.00;0.00;;;16.20;99.90;;;;;;5008930;28;20492;-74
2022/07/01 06:15:27;;;;;;;0.05;0.05;;;16.20;99.90;;;;;;5009422;28;20124;-74
2022/07/01 06:17:54;;;;;;;0.00;0.00;;;16.10;99.90;;;;;;5025700;28;20492;-72
2022/07/01 06:20:20;;;;;;;0.10;0.10;;;16.10;99.90;;;;;;4993338;28;20096;-72
2022/07/01 06:22:46;;;;;;;0.00;0.00;;;16.20;99.90;;;;;;5010569;28;20474;-72
2022/07/01 06:25:12;;;;;;;0.00;0.00;;;16.10;99.90;;;;;;5010684;28;20036;-72
2022/07/01 06:27:39;;;;;;;0.00;0.00;;;16.10;99.90;;;;;;5010503;28;20029;-72
2022/07/01 06:30:06;;;;;;;5.38;0.43;;;16.00;99.90;;;;;;5025777;28;20117;-72
2022/07/01 06:32:32;;;;;;;0.00;0.00;;;16.00;99.90;;;;;;4993078;28;20061;-73
2022/07/01 06:34:57;;;;;;;0.10;0.10;;;16.00;99.90;;;;;;4991212;28;20105;-73
2022/07/01 06:37:23;;;;;;;0.00;0.00;;;16.00;99.90;;;;;;4991100;28;20109;-72
2022/07/01 06:39:49;;;;;;;0.82;0.45;;;15.90;99.90;;;;;;5004134;28;20034;-72
2022/07/01 06:42:15;;;;;;;0.10;0.10;;;15.80;99.90;;;;;;5012714;28;20037;-72
2022/07/01 06:44:41;;;;;;;0.95;0.88;;;15.80;99.90;;;;;;5014612;28;20030;-72
2022/07/01 06:47:07;;;;;;;0.00;0.00;;;15.80;99.90;;;;;;5013270;28;20033;-71
2022/07/01 06:49:33;;;;;;;0.00;0.00;;;15.80;99.90;;;;;;5012896;28;20067;-72
2022/07/01 06:51:59;;;;;;;2.10;0.63;;;15.70;99.90;;;;;;5012597;28;20552;-71
2022/07/01 06:54:24;;;;;;;0.00;0.00;;;15.60;99.90;;;;;;5013074;28;20040;-72
2022/07/01 06:56:51;;;;;;;24.65;1.27;;;15.40;99.90;;;;;;5012832;28;20042;-72
2022/07/01 06:59:17;;;;;;;0.00;0.00;;;15.40;99.90;;;;;;5013015;28;20065;-73
2022/07/01 07:01:43;;;;;;;0.00;0.00;;;15.50;99.90;;;;;;5012966;28;20064;-73
2022/07/01 07:04:08;;;;;;;0.17;0.17;;;15.60;99.90;;;;;;5013878;28;20026;-72
2022/07/01 07:06:34;;;;;;;0.00;0.00;;;15.50;99.90;;;;;;5012901;28;20029;-72
2022/07/01 07:09:00;;;;;;;0.00;0.00;;;15.50;99.90;;;;;;5014043;28;20029;-71
2022/07/01 07:11:27;;;;;;;0.00;0.00;;;15.70;99.90;;;;;;5013579;28;20124;-73
2022/07/01 07:13:52;;;;;;;0.20;0.15;;;15.80;99.90;;;;;;5013587;28;20474;-73
2022/07/01 07:16:20;;;;;;;0.03;0.03;;;15.90;99.90;;;;;;5012952;28;20116;-73
2022/07/01 07:18:48;;;;;;;0.10;0.10;;;16.00;99.90;;;;;;5013847;28;20026;-73
2022/07/01 07:21:13;;;;;;;0.00;0.00;;;16.00;99.90;;;;;;5012627;28;20030;-77
2022/07/01 07:23:39;;;;;;;1.15;0.22;;;16.00;99.90;;;;;;5014216;28;20461;-73
2022/07/01 07:26:05;;;;;;;0.00;0.00;;;15.90;99.90;;;;;;5013452;28;20044;-74
2022/07/01 07:28:31;;;;;;;0.75;0.75;;;15.80;99.90;;;;;;5012351;28;20030;-74
2022/07/01 07:30:56;;;;;;;0.00;0.00;;;15.80;99.90;;;;;;5014065;28;20065;-74
2022/07/01 07:33:22;;;;;;;0.00;0.00;;;15.80;99.90;;;;;;5013287;28;20037;-73
2022/07/01 07:35:48;;;;;;;0.10;0.10;;;15.70;99.90;;;;;;5013362;28;20113;-74
2022/07/01 07:38:14;;;;;;;0.00;0.00;;;15.80;99.90;;;;;;5013755;28;20064;-72
2022/07/01 07:40:41;;;;;;;0.20;0.20;;;15.90;99.90;;;;;;5012020;28;20049;-72
2022/07/01 07:43:07;;;;;;;0.05;0.05;;;16.00;99.90;;;;;;5013349;28;20105;-72
2022/07/01 07:45:34;;;;;;;0.10;0.10;;;15.90;99.90;;;;;;5013383;28;20030;-72
2022/07/01 07:48:00;;;;;;;0.00;0.00;;;15.90;99.90;;;;;;5012164;28;20034;-72
2022/07/01 07:50:26;;;;;;;0.28;0.28;;;15.90;99.90;;;;;;5012943;28;20474;-72
2022/07/01 07:52:52;;;;;;;2.53;1.27;;;16.10;99.90;;;;;;5011404;28;20099;-72
2022/07/01 07:55:18;;;;;;;0.00;0.00;;;16.10;99.90;;;;;;5013482;28;20440;-73
2022/07/01 07:57:44;;;;;;;0.00;0.00;;;16.10;99.90;;;;;;5012002;28;20022;-73
2022/07/01 08:00:12;;;;;;;0.30;0.30;;;16.00;99.90;;;;;;5012953;28;20060;-73
2022/07/01 08:02:40;;;;;;;0.00;0.00;;;16.00;99.90;;;;;;5011635;28;20030;-73
2022/07/01 08:05:08;;;;;;;0.00;0.00;;;16.10;99.90;;;;;;5013253;28;20160;-73
2022/07/01 08:07:42;;;;;;;0.00;0.00;;;16.10;99.90;;;;;;5012745;28;20037;-73
2022/07/01 08:10:11;;;;;;;0.20;0.20;;;16.10;99.90;;;;;;5013155;28;20026;-73
2022/07/01 08:12:38;;;;;;;0.10;0.10;;;16.10;99.90;;;;;;5012322;28;20397;-73
2022/07/01 08:15:05;;;;;;;0.05;0.05;;;16.20;99.90;;;;;;5013198;28;20097;-78
2022/07/01 08:17:31;;;;;;;0.00;0.00;;;16.20;99.90;;;;;;5012338;28;20108;-74
2022/07/01 08:19:57;;;;;;;0.43;0.22;;;16.10;99.90;;;;;;5011104;28;20168;-74
2022/07/01 08:22:23;;;;;;;0.57;0.43;;;16.20;99.90;;;;;;5012302;28;20175;-73
2022/07/01 08:24:49;;;;;;;0.63;0.17;;;16.30;99.90;;;;;;5011152;28;20034;-73
2022/07/01 08:27:15;;;;;;;0.05;0.05;;;16.30;99.90;;;;;;4993817;28;20124;-74
2022/07/01 08:29:41;;;;;;;0.17;0.17;;;16.20;99.90;;;;;;4992652;28;20062;-70
2022/07/01 08:32:07;;;;;;;0.05;0.05;;;16.40;99.90;;;;;;4992286;28;20068;-71
2022/07/01 08:34:34;;;;;;;1.38;0.52;;;16.40;99.90;;;;;;4992415;28;20027;-71
2022/07/01 08:37:00;;;;;;;0.00;0.00;;;16.50;99.90;;;;;;4992500;28;20066;-71
2022/07/01 08:39:26;;;;;;;0.00;0.00;;;16.40;99.90;;;;;;5000583;28;20022;-72
2022/07/01 08:41:52;;;;;;;0.40;0.40;;;16.40;99.90;;;;;;5012205;28;20095;-72
2022/07/01 08:44:18;;;;;;;0.00;0.00;;;16.30;99.90;;;;;;5010787;28;20026;-72
2022/07/01 08:46:43;;;;;;;2.28;0.28;;;16.30;99.90;;;;;;5012667;28;20382;-73
2022/07/01 08:49:09;;;;;;;0.00;0.00;;;16.30;99.90;;;;;;5012183;28;20040;-73
2022/07/01 08:51:35;;;;;;;0.65;0.65;;;16.30;99.90;;;;;;5011487;28;20080;-73
2022/07/01 08:54:00;;;;;;;0.30;0.30;;;16.20;99.90;;;;;;5011549;28;20022;-73
2022/07/01 08:56:41;;;;;;;0.45;0.35;;;16.30;99.90;;;;;;5012027;28;20034;-73
2022/07/01 08:59:23;;;;;;;0.10;0.10;;;16.10;99.90;;;;;;5011754;28;20478;-73
2022/07/01 09:02:01;;;;;;;0.03;0.03;;;16.10;99.90;;;;;;5009822;28;20046;-73
2022/07/01 09:04:28;;;;;;;5.95;0.20;;;16.10;99.90;;;;;;5012083;28;20044;-73
2022/07/01 09:07:09;;;;;;;0.28;0.20;;;16.10;99.90;;;;;;5011743;28;20033;-74
2022/07/01 09:09:39;;;;;;;;;;;16.20;99.90;;;;;;5010765;28;20124;-73
2022/07/01 09:12:09;;;;;;;12.95;1.45;;;16.30;99.90;;;;;;5009980;28;19913;-73
2022/07/01 09:14:35;;;;;;;0.00;0.00;;;16.40;99.90;;;;;;5010551;28;20030;-74
2022/07/01 09:17:06;;;;;;;0.00;0.00;;;16.50;99.90;;;;;;5026604;28;20030;-74
2022/07/01 09:19:36;;;;;;;0.00;0.00;;;16.70;99.90;;;;;;5009117;28;20064;-74
2022/07/01 09:22:04;;;;;;;0.20;0.15;;;17.00;99.90;;;;;;4990599;28;20573;-72
2022/07/01 09:24:37;;;;;;;0.25;0.25;;;17.00;99.90;;;;;;4990276;28;20034;-72
2022/07/01 09:27:13;;;;;;;0.03;0.03;;;17.20;99.90;;;;;;4975096;28;20034;-72
2022/07/01 09:29:51;;;;;;;0.00;0.00;;;17.40;99.90;;;;;;4991661;28;20072;-72
2022/07/01 09:32:20;;;;;;;0.00;0.00;;;17.30;99.90;;;;;;4991475;28;20041;-73
2022/07/01 09:34:50;;;;;;;0.00;0.00;;;17.40;99.90;;;;;;4991887;28;20026;-72
2022/07/01 09:37:22;;;;;;;0.00;0.00;;;17.40;99.90;;;;;;4990212;28;20027;-72
2022/07/01 09:39:54;;;;;;;0.00;0.00;;;17.30;99.90;;;;;;5000913;28;20034;-72
2022/07/01 09:42:22;;;;;;;0.00;0.00;;;17.50;99.90;;;;;;5010735;28;20037;-73
2022/07/01 09:44:55;;;;;;;0.00;0.00;;;17.60;99.90;;;;;;4999252;28;20041;-72
2022/07/01 09:47:26;;;;;;;0.00;0.00;;;17.70;99.90;;;;;;4991646;28;20034;-73
2022/07/01 09:49:53;;;;;;;0.00;0.00;;;18.00;99.90;;;;;;4991452;28;20038;-73
2022/07/01 09:52:21;;;;;;;0.10;0.05;;;18.20;99.90;;;;;;4991318;28;20100;-73
2022/07/01 09:54:49;;;;;;;0.80;0.80;;;18.40;99.90;;;;;;4990294;28;20399;-73
2022/07/01 09:57:17;;;;;;;0.00;0.00;;;18.50;99.90;;;;;;4991534;28;20030;-73
2022/07/01 09:59:43;;;;;;;0.10;0.08;;;18.30;99.90;;;;;;4990338;28;20085;-73
2022/07/01 10:02:10;;;;;;;0.10;0.10;;;18.40;99.90;;;;;;4990973;28;20030;-73
2022/07/01 10:04:40;;;;;;;0.00;0.00;;;18.40;99.90;;;;;;4991549;28;20073;-73
2022/07/01 10:07:29;;;;;;;0.00;0.00;;;18.30;99.90;;;;;;4990100;28;20053;-72
2022/07/01 10:10:28;;;;;;;0.00;0.00;;;18.00;99.90;;;;;;5002750;28;20041;-72
2022/07/01 10:12:56;;;;;;;0.47;0.47;;;18.20;99.90;;;;;;5010197;28;20046;-73
2022/07/01 10:15:22;;;;;;;0.00;0.00;;;18.10;99.90;;;;;;5013583;28;20088;-73
2022/07/01 10:17:50;;;;;;;0.00;0.00;;;18.10;99.90;;;;;;5013634;28;20083;-73
2022/07/01 10:20:21;;;;;;;0.00;0.00;;;18.20;99.90;;;;;;5014902;28;20030;-73
2022/07/01 10:22:47;;;;;;;0.00;0.00;;;18.30;99.90;;;;;;5014982;28;20030;-74
2022/07/01 10:25:43;;;;;;;0.08;0.08;;;18.30;99.90;;;;;;5015445;28;20037;-75
2022/07/01 10:28:34;;;;;;;0.20;0.20;;;18.20;99.90;;;;;;5014808;28;20061;-76
2022/07/01 10:31:04;;;;;;;0.00;0.00;;;18.40;99.90;;;;;;4994814;28;20050;-73
2022/07/01 10:33:56;;;;;;;0.00;0.00;;;18.70;99.90;;;;;;4984794;28;20030;-77
2022/07/01 10:36:35;;;;;;;0.10;0.10;;;18.70;99.90;;;;;;4994733;28;20030;-73
2022/07/01 10:39:10;;;;;;;0.00;0.00;;;18.70;99.90;;;;;;4992369;28;20368;-76
2022/07/01 10:41:41;;;;;;;0.00;0.00;;;18.90;99.90;;;;;;4994740;28;20134;-75
2022/07/01 10:44:12;;;;;;;0.38;0.38;;;18.80;99.90;;;;;;4994831;28;20041;-72
2022/07/01 10:46:59;;;;;;;0.30;0.22;;;18.70;99.90;;;;;;4993693;28;20165;-73
2022/07/01 10:49:36;;;;;;;0.15;0.10;;;18.80;99.90;;;;;;4993906;28;20033;-73
2022/07/01 10:52:18;;;;;;;0.28;0.28;;;19.40;99.90;;;;;;4994137;28;20041;-76
2022/07/01 10:54:45;;;;;;;0.00;0.00;;;19.60;99.90;;;;;;4993411;28;20027;-75
2022/07/01 10:57:17;;;;;;;0.00;0.00;;;19.60;99.90;;;;;;4994674;28;20062;-74
2022/07/01 11:00:19;;;;;;;0.10;0.10;;;19.30;99.90;;;;;;4994307;28;20503;-74
2022/07/01 11:02:45;;;;;;;0.00;0.00;;;19.50;99.90;;;;;;4980798;28;20051;-75
2022/07/01 11:05:15;;;;;;;0.00;0.00;;;19.70;99.90;;;;;;4984750;28;20084;-74
2022/07/01 11:07:46;;;;;;;0.00;0.00;;;19.20;99.90;;;;;;5008676;28;20038;-73
2022/07/01 11:10:19;;;;;;;0.00;0.00;;;19.60;99.90;;;;;;5007048;28;20033;-72
2022/07/01 11:12:48;;;;;;;0.20;0.10;;;19.80;99.90;;;;;;5013422;28;20084;-75
2022/07/01 11:15:15;;;;;;;0.00;0.00;;;19.40;99.90;;;;;;5012345;28;20018;-74
2022/07/01 11:17:47;;;;;;;1.95;1.00;;;19.50;99.90;;;;;;4998590;28;20035;-72
2022/07/01 11:20:14;;;;;;;0.52;0.52;;;19.70;99.90;;;;;;5002982;28;20041;-74
2022/07/01 11:22:40;;;;;;;0.00;0.00;;;19.90;99.90;;;;;;4976403;28;20506;-71
2022/07/01 11:25:12;;;;;;;0.00;0.00;;;20.10;99.90;;;;;;4992147;28;20038;-73
2022/07/01 11:27:38;;;;;;;0.00;0.00;;;19.90;99.90;;;;;;4992839;28;20030;-74
2022/07/01 11:30:12;;;;;;;3.83;1.08;;;19.50;99.90;;;;;;4992627;28;20501;-74
2022/07/01 11:32:51;;;;;;;0.10;0.10;;;19.80;99.90;;;;;;4992654;28;20061;-73
2022/07/01 11:41:22;;;;;;;;;;;20.90;99.90;;;;;;4993918;28;20085;-74
2022/07/01 11:43:50;;;;;;;0.05;0.05;;;21.10;99.90;;;;;;4992700;28;19916;-74
2022/07/01 11:46:16;;;;;;;0.00;0.00;;;21.00;99.90;;;;;;4993386;28;20037;-73
2022/07/01 11:48:49;;;;;;;0.20;0.20;;;21.60;99.90;;;;;;5001735;28;20461;-74
2022/07/01 11:51:23;;;;;;;0.10;0.00;;;22.00;99.60;;;;;;5011414;28;20132;-70
2022/07/01 11:53:54;;;;;;;0.20;0.10;;;22.30;98.20;;;;;;5000481;28;20048;-70
2022/07/01 11:56:39;;;;;;;0.40;0.40;;;22.60;98.70;;;;;;5011226;28;20034;-70
2022/07/01 11:59:04;;;;;;;0.10;0.10;;;22.50;98.00;;;;;;5000639;28;20057;-70
2022/07/01 12:01:34;;;;;;;0.20;0.20;;;22.60;98.00;;;;;;4995984;28;20507;-71
2022/07/01 12:04:03;;;;;;;0.00;0.00;;;22.80;97.50;;;;;;5007197;28;20036;-71
2022/07/01 12:06:30;;;;;;;0.10;0.00;;;21.50;99.80;;;;;;5009498;28;20101;-71
2022/07/01 12:09:00;;;;;;;0.03;0.03;;;21.60;99.50;;;;;;5005935;28;20037;-70
2022/07/01 12:11:28;;;;;;;0.22;0.22;;;21.50;99.90;;;;;;4992538;28;20034;-71
2022/07/01 12:13:58;;;;;;;1.88;1.17;;;21.70;99.50;;;;;;5001805;28;20034;-71
2022/07/01 12:16:25;;;;;;;0.00;0.00;;;21.30;99.90;;;;;;5000049;28;20541;-70
2022/07/01 12:18:55;;;;;;;0.00;0.00;;;22.00;99.00;;;;;;5000389;28;20041;-71
2022/07/01 12:21:23;;;;;;;0.00;0.00;;;22.30;98.90;;;;;;4993667;28;20022;-70
2022/07/01 12:24:11;;;;;;;0.60;0.60;;;22.20;98.40;;;;;;5001222;28;20035;-70
2022/07/01 12:26:52;;;;;;;0.43;0.43;;;22.60;97.70;;;;;;4996741;28;20044;-70
2022/07/01 12:29:23;;;;;;;;;;;22.60;97.70;;;;;;4997610;28;20505;-71
2022/07/01 12:32:00;;;;;;;0.00;0.00;;;22.50;97.40;;;;;;4997149;28;20281;-71
2022/07/01 12:34:49;;;;;;;0.00;0.00;;;22.20;97.10;;;;;;4990961;28;20106;-71
2022/07/01 12:37:20;;;;;;;0.08;0.08;;;22.20;97.20;;;;;;4996367;28;20030;-71
2022/07/01 12:40:05;;;;;;;0.00;0.00;;;21.70;97.00;;;;;;5006158;28;20029;-71
2022/07/01 12:42:37;;;;;;;0.10;0.10;;;21.50;98.00;;;;;;5000895;28;20031;-70
2022/07/01 12:45:07;;;;;;;0.00;0.00;;;21.80;97.70;;;;;;5007678;28;20030;-71
2022/07/01 12:47:40;;;;;;;0.00;0.00;;;21.90;98.10;;;;;;5003271;28;20084;-71
2022/07/01 12:50:24;;;;;;;0.13;0.13;;;21.60;97.70;;;;;;4992409;28;20371;-71
2022/07/01 12:53:18;;;;;;;0.05;0.05;;;21.70;97.40;;;;;;4995551;28;20125;-70
2022/07/01 12:55:53;;;;;;;0.00;0.00;;;22.20;98.40;;;;;;4988746;28;20475;-71
2022/07/01 12:58:25;;;;;;;0.10;0.10;;;23.00;97.10;;;;;;4998595;28;20030;-70
2022/07/01 13:01:00;;;;;;;0.22;0.15;;;23.50;96.30;;;;;;5011396;28;20029;-70
2022/07/01 13:03:27;;;;;;;0.57;0.57;;;23.40;95.70;;;;;;4993411;28;20379;-70
2022/07/01 13:05:56;;;;;;;0.03;0.03;;;23.30;95.30;;;;;;5009142;28;20037;-70
2022/07/01 13:08:22;;;;;;;0.35;0.20;;;23.30;95.20;;;;;;4997684;28;20104;-71
2022/07/01 13:10:48;;;;;;;0.38;0.38;;;23.30;96.50;;;;;;4993202;28;20482;-70